Time;durP1;ratioP1;P1;durP2;ratioP2;P2;SDS_P1;SDS_P2;PMS_P1;PMS_P2;Temp;Humidity;BMP_temperature;BMP_pressure;BME280_temperature;BME280_humidity;BME280_pressure;Samples;Min_cycle;Max_cycle;Signal;HPM_P1;HPM_P2
2023/03/21 00:01:04;;;;;;;36.22;24.20;;;11.20;99.90;;;;;;4976535;28;92383;-74
2023/03/21 00:03:33;;;;;;;39.10;24.45;;;11.30;99.90;;;;;;4977185;28;92342;-74
2023/03/21 00:06:10;;;;;;;42.15;25.13;;;11.30;99.90;;;;;;4976418;28;93275;-74
2023/03/21 00:08:37;;;;;;;35.25;23.17;;;11.30;99.90;;;;;;4976897;28;93065;-74
2023/03/21 00:11:07;;;;;;;39.45;24.02;;;11.30;99.90;;;;;;4976716;28;92433;-74
2023/03/21 00:13:37;;;;;;;35.63;23.23;;;11.30;99.90;;;;;;4975293;28;91809;-74
2023/03/21 00:16:16;;;;;;;38.17;22.98;;;11.30;99.90;;;;;;4976615;28;93213;-74
2023/03/21 00:18:52;;;;;;;43.53;24.02;;;11.30;99.90;;;;;;4976603;28;93092;-74
2023/03/21 00:21:27;;;;;;;38.33;23.70;;;11.30;99.90;;;;;;4974181;28;94873;-74
2023/03/21 00:24:14;;;;;;;37.85;23.27;;;11.30;99.90;;;;;;4975131;28;92516;-74
2023/03/21 00:26:41;;;;;;;41.38;23.23;;;11.30;99.90;;;;;;4974891;28;95961;-74
2023/03/21 00:29:08;;;;;;;40.70;23.58;;;11.30;99.90;;;;;;4942980;28;93009;-74
2023/03/21 00:31:35;;;;;;;34.97;22.40;;;11.30;99.90;;;;;;4991492;28;92467;-74
2023/03/21 00:34:02;;;;;;;38.70;22.50;;;11.30;99.90;;;;;;4975073;28;93454;-74
2023/03/21 00:36:30;;;;;;;36.28;22.95;;;11.30;99.90;;;;;;4976358;28;93211;-74
2023/03/21 00:38:59;;;;;;;37.45;22.40;;;11.30;99.90;;;;;;4975030;28;94370;-74
2023/03/21 00:41:26;;;;;;;36.63;22.33;;;11.30;99.90;;;;;;4976332;28;92348;-74
2023/03/21 00:44:08;;;;;;;36.25;21.98;;;11.30;99.90;;;;;;4976343;28;92457;-74
2023/03/21 00:46:35;;;;;;;40.45;24.40;;;11.30;99.90;;;;;;4974842;28;95584;-74
2023/03/21 00:49:14;;;;;;;39.95;23.50;;;11.30;99.90;;;;;;4974639;28;98289;-74
2023/03/21 00:51:42;;;;;;;39.58;22.58;;;11.30;99.90;;;;;;4974704;28;92582;-74
2023/03/21 00:54:11;;;;;;;42.05;22.70;;;11.30;99.90;;;;;;4975953;28;92744;-74
2023/03/21 00:56:40;;;;;;;44.90;23.38;;;11.40;99.90;;;;;;4975088;28;93144;-74
2023/03/21 00:59:06;;;;;;;45.15;22.83;;;11.40;99.90;;;;;;4973389;28;95545;-74
2023/03/21 01:01:35;;;;;;;40.53;21.63;;;11.40;99.90;;;;;;4975935;28;92426;-74
2023/03/21 01:04:12;;;;;;;40.60;21.27;;;11.40;99.90;;;;;;4976298;28;91919;-74
2023/03/21 01:06:42;;;;;;;38.67;20.25;;;11.30;99.90;;;;;;4974485;28;96131;-74
2023/03/21 01:09:19;;;;;;;41.45;21.08;;;11.40;99.90;;;;;;4975712;28;93233;-74
2023/03/21 01:11:47;;;;;;;39.10;21.10;;;11.40;99.90;;;;;;4973192;28;94887;-74
2023/03/21 01:14:16;;;;;;;37.00;20.58;;;11.40;99.90;;;;;;4974182;28;92578;-74
2023/03/21 01:16:52;;;;;;;42.90;20.98;;;11.40;99.90;;;;;;4974144;28;95882;-74
2023/03/21 01:19:25;;;;;;;45.53;22.02;;;11.50;99.90;;;;;;4974150;28;95683;-74
2023/03/21 01:22:07;;;;;;;39.30;19.58;;;11.50;99.90;;;;;;4973904;28;92408;-74
2023/03/21 01:24:35;;;;;;;33.88;17.60;;;11.40;99.90;;;;;;4975553;28;92472;-74
2023/03/21 01:27:09;;;;;;;31.48;17.90;;;11.50;99.90;;;;;;4974000;28;95748;-74
2023/03/21 01:29:36;;;;;;;34.78;18.55;;;11.40;99.90;;;;;;4957905;28;103656;-74
2023/03/21 01:32:03;;;;;;;35.90;18.38;;;11.40;99.90;;;;;;4957891;28;92509;-74
2023/03/21 01:34:31;;;;;;;38.72;18.17;;;11.50;99.90;;;;;;4974328;28;92438;-74
2023/03/21 01:36:58;;;;;;;35.33;17.38;;;11.50;99.90;;;;;;4989026;28;97967;-74
2023/03/21 01:39:25;;;;;;;37.72;16.98;;;11.50;99.90;;;;;;4973827;28;96729;-74
2023/03/21 01:41:52;;;;;;;40.17;16.45;;;11.50;99.90;;;;;;4974113;28;92538;-74
2023/03/21 01:44:22;;;;;;;35.35;17.63;;;11.50;99.90;;;;;;4974003;28;92648;-74
2023/03/21 01:46:51;;;;;;;36.33;16.75;;;11.50;99.90;;;;;;4974051;28;94814;-74
2023/03/21 01:50:00;;;;;;;37.13;17.63;;;11.50;99.90;;;;;;4972358;28;92578;-74
2023/03/21 01:52:51;;;;;;;28.55;16.13;;;11.50;99.90;;;;;;4974020;28;92557;-74
2023/03/21 01:55:26;;;;;;;30.67;16.20;;;11.50;99.90;;;;;;4943510;28;91833;-74
2023/03/21 01:58:00;;;;;;;40.92;16.98;;;11.50;99.90;;;;;;4973497;28;95677;-74
2023/03/21 02:00:52;;;;;;;33.25;16.77;;;11.50;99.90;;;;;;4973295;28;92466;-74
2023/03/21 02:03:48;;;;;;;30.75;16.13;;;11.40;99.90;;;;;;4958121;28;94942;-74
2023/03/21 02:06:47;;;;;;;28.55;14.98;;;11.50;99.90;;;;;;4968300;28;92475;-74
2023/03/21 02:09:27;;;;;;;32.60;16.20;;;11.50;99.90;;;;;;4973645;28;95488;-74
2023/03/21 02:11:55;;;;;;;29.48;15.65;;;11.40;99.90;;;;;;4959728;28;95516;-74
2023/03/21 02:14:32;;;;;;;32.10;16.98;;;11.40;99.90;;;;;;4961215;28;92587;-74
2023/03/21 02:17:06;;;;;;;29.88;16.80;;;11.50;99.90;;;;;;4977121;28;92488;-74
2023/03/21 02:19:47;;;;;;;32.63;16.20;;;11.50;99.90;;;;;;4977087;28;95549;-74
2023/03/21 02:22:46;;;;;;;36.10;17.17;;;11.50;99.90;;;;;;4977040;28;95383;-74
2023/03/21 02:25:32;;;;;;;32.25;15.95;;;11.50;99.90;;;;;;4976993;28;92530;-74
2023/03/21 02:28:12;;;;;;;40.47;18.02;;;11.60;99.90;;;;;;4993429;28;92498;-74
2023/03/21 02:31:04;;;;;;;38.00;18.30;;;11.50;99.90;;;;;;4959254;28;98132;-74
2023/03/21 02:33:52;;;;;;;36.38;18.10;;;11.60;99.90;;;;;;4976769;28;97542;-74
2023/03/21 02:36:45;;;;;;;38.22;18.77;;;11.60;99.90;;;;;;4977047;28;92555;-74
2023/03/21 02:39:41;;;;;;;34.78;19.75;;;11.60;99.90;;;;;;4976484;28;92466;-74
2023/03/21 02:42:23;;;;;;;40.28;20.85;;;11.60;99.90;;;;;;4951225;28;95539;-74
2023/03/21 02:45:25;;;;;;;30.23;18.30;;;11.60;99.90;;;;;;4976724;28;95349;-74
2023/03/21 02:48:05;;;;;;;34.83;18.83;;;11.60;99.90;;;;;;4976781;28;92380;-74
2023/03/21 02:50:42;;;;;;;40.35;20.98;;;11.60;99.90;;;;;;4977085;28;91752;-74
2023/03/21 02:53:12;;;;;;;40.53;20.67;;;11.60;99.90;;;;;;4976403;28;95702;-74
2023/03/21 02:55:41;;;;;;;35.75;19.08;;;11.60;99.90;;;;;;4976551;28;94968;-74
2023/03/21 02:58:15;;;;;;;44.30;20.58;;;11.60;99.90;;;;;;4975130;28;94958;-74
2023/03/21 03:00:48;;;;;;;43.08;20.58;;;11.60;99.90;;;;;;4993455;28;93177;-74
2023/03/21 03:03:27;;;;;;;36.40;19.00;;;11.60;99.90;;;;;;4977904;28;95327;-74
2023/03/21 03:06:08;;;;;;;37.50;19.92;;;11.60;99.90;;;;;;4976339;28;94472;-74
2023/03/21 03:09:21;;;;;;;37.70;19.53;;;11.60;99.90;;;;;;4976389;28;92868;-74
2023/03/21 03:11:52;;;;;;;37.03;18.67;;;11.60;99.90;;;;;;4949706;28;92550;-74
2023/03/21 03:14:29;;;;;;;33.75;17.98;;;11.60;99.90;;;;;;4992388;28;95732;-74
2023/03/21 03:17:20;;;;;;;34.42;17.70;;;11.60;99.90;;;;;;4976352;28;95779;-74
2023/03/21 03:20:19;;;;;;;37.33;17.77;;;11.60;99.90;;;;;;4976466;28;92430;-74
2023/03/21 03:23:15;;;;;;;38.80;17.98;;;11.60;99.90;;;;;;4975344;28;92589;-74
2023/03/21 03:26:01;;;;;;;36.17;17.33;;;11.60;99.90;;;;;;4955702;28;98357;-74
2023/03/21 03:28:35;;;;;;;35.30;18.30;;;11.60;99.90;;;;;;4975739;28;97890;-74
2023/03/21 03:31:12;;;;;;;37.00;18.70;;;11.60;99.90;;;;;;4975946;28;92458;-74
2023/03/21 03:33:47;;;;;;;31.92;17.52;;;11.50;99.90;;;;;;4976046;28;92701;-74
2023/03/21 03:36:17;;;;;;;33.58;15.85;;;11.60;99.90;;;;;;4992184;28;95259;-74
2023/03/21 03:39:03;;;;;;;30.15;15.55;;;11.60;99.90;;;;;;4961548;28;95127;-74
2023/03/21 03:41:36;;;;;;;32.67;16.20;;;11.60;99.90;;;;;;4975724;28;92460;-74
2023/03/21 03:44:27;;;;;;;31.15;16.25;;;11.60;99.90;;;;;;4976242;28;92309;-74
2023/03/21 03:47:04;;;;;;;27.77;16.52;;;11.50;99.90;;;;;;4992397;28;95023;-74
2023/03/21 03:49:37;;;;;;;28.58;15.13;;;11.60;99.90;;;;;;4959264;28;95674;-74
2023/03/21 03:52:29;;;;;;;28.77;15.05;;;11.60;99.90;;;;;;4974572;28;95455;-74
2023/03/21 03:55:05;;;;;;;26.02;14.93;;;11.60;99.90;;;;;;4975912;28;92988;-74
2023/03/21 03:57:37;;;;;;;24.55;14.43;;;11.60;99.90;;;;;;4975689;28;95532;-74
2023/03/21 04:00:10;;;;;;;22.38;13.55;;;11.60;99.90;;;;;;4976738;28;92970;-74
2023/03/21 04:02:44;;;;;;;23.80;13.68;;;11.60;99.90;;;;;;4977015;28;92446;-74
2023/03/21 04:05:19;;;;;;;23.27;14.68;;;11.60;99.90;;;;;;4959707;28;92528;-74
2023/03/21 04:07:49;;;;;;;24.08;13.50;;;11.60;99.90;;;;;;4959743;28;96149;-74
2023/03/21 04:10:21;;;;;;;21.13;13.40;;;11.60;99.90;;;;;;4975404;28;94199;-74
2023/03/21 04:12:48;;;;;;;24.08;13.75;;;11.60;99.90;;;;;;4974950;28;92451;-74
2023/03/21 04:15:34;;;;;;;22.77;12.88;;;11.60;99.90;;;;;;4973191;28;92406;-74
2023/03/21 04:18:09;;;;;;;25.00;14.68;;;11.60;99.90;;;;;;4958660;28;98040;-74
2023/03/21 04:20:36;;;;;;;23.95;14.18;;;11.60;99.90;;;;;;4991433;28;97875;-74
2023/03/21 04:23:06;;;;;;;25.77;13.68;;;11.60;99.90;;;;;;4975422;28;92555;-74
2023/03/21 04:25:34;;;;;;;24.27;14.15;;;11.60;99.90;;;;;;4976158;28;93649;-74
2023/03/21 04:28:04;;;;;;;25.02;14.02;;;11.50;99.90;;;;;;4974936;28;95240;-74
2023/03/21 04:30:41;;;;;;;25.75;14.38;;;11.50;99.90;;;;;;4975054;28;95419;-74
2023/03/21 04:33:24;;;;;;;21.08;13.57;;;11.50;99.90;;;;;;4974869;28;92495;-74
2023/03/21 04:35:57;;;;;;;24.80;14.20;;;11.50;99.90;;;;;;4959845;28;91793;-74
2023/03/21 04:38:29;;;;;;;26.10;14.70;;;11.50;99.90;;;;;;4975356;28;95739;-74
2023/03/21 04:41:00;;;;;;;20.55;13.30;;;11.50;99.90;;;;;;4991344;28;93927;-74
2023/03/21 04:43:29;;;;;;;23.02;14.73;;;11.50;99.90;;;;;;4957739;28;94846;-74
2023/03/21 04:45:56;;;;;;;19.27;13.25;;;11.50;99.90;;;;;;4974829;28;92457;-74
2023/03/21 04:48:23;;;;;;;22.15;14.15;;;11.60;99.90;;;;;;4974317;28;94974;-74
2023/03/21 04:50:51;;;;;;;22.83;14.23;;;11.50;99.90;;;;;;4974557;28;94041;-74
2023/03/21 04:53:18;;;;;;;20.48;13.75;;;11.50;99.90;;;;;;4975937;28;92379;-74
2023/03/21 04:55:45;;;;;;;21.40;14.85;;;11.50;99.90;;;;;;4991270;28;92483;-74
2023/03/21 04:58:12;;;;;;;20.80;14.30;;;11.50;99.90;;;;;;4974487;28;95686;-74
2023/03/21 05:00:39;;;;;;;22.58;15.05;;;11.50;99.90;;;;;;4958567;28;95535;-74
2023/03/21 05:03:09;;;;;;;20.60;13.88;;;11.50;99.90;;;;;;4974297;28;100046;-74
2023/03/21 05:05:37;;;;;;;22.75;14.35;;;11.60;99.90;;;;;;4974784;28;92640;-74
2023/03/21 05:08:05;;;;;;;25.05;15.27;;;11.60;99.90;;;;;;4974448;28;95699;-74
2023/03/21 05:10:32;;;;;;;25.33;14.65;;;11.60;99.90;;;;;;4975387;28;95136;-74
2023/03/21 05:13:00;;;;;;;19.88;13.48;;;11.50;99.90;;;;;;4974249;28;92498;-74
2023/03/21 05:15:27;;;;;;;23.90;14.82;;;11.50;99.90;;;;;;4957665;28;93089;-74
2023/03/21 05:17:57;;;;;;;28.42;15.68;;;11.50;99.90;;;;;;4974319;28;95538;-74
2023/03/21 05:20:25;;;;;;;22.00;14.00;;;11.50;99.90;;;;;;4974214;28;95539;-74
2023/03/21 05:22:52;;;;;;;26.08;14.65;;;11.50;99.90;;;;;;4974517;28;92650;-74
2023/03/21 05:25:20;;;;;;;23.85;14.57;;;11.50;99.90;;;;;;4974782;28;91825;-74
2023/03/21 05:28:08;;;;;;;23.77;15.68;;;11.50;99.90;;;;;;4974296;28;95563;-74
2023/03/21 05:30:35;;;;;;;25.35;15.38;;;11.50;99.90;;;;;;4975207;28;93224;-74
2023/03/21 05:33:03;;;;;;;27.60;15.27;;;11.50;99.90;;;;;;4989683;28;94928;-74
2023/03/21 05:35:30;;;;;;;25.65;15.65;;;11.40;99.90;;;;;;4975535;28;92492;-74
2023/03/21 05:38:01;;;;;;;27.50;15.38;;;11.40;99.90;;;;;;4974152;28;95304;-74
2023/03/21 05:40:32;;;;;;;24.15;15.65;;;11.50;99.90;;;;;;4990252;28;95003;-74
2023/03/21 05:43:00;;;;;;;23.63;15.27;;;11.50;99.90;;;;;;4958126;28;92456;-74
2023/03/21 05:45:27;;;;;;;25.40;16.48;;;11.40;99.90;;;;;;4973371;28;92638;-74
2023/03/21 05:47:54;;;;;;;25.42;16.65;;;11.50;99.90;;;;;;4974186;28;95645;-74
2023/03/21 05:50:25;;;;;;;28.65;16.95;;;11.50;99.90;;;;;;4958653;28;95446;-74
2023/03/21 05:53:06;;;;;;;27.63;17.15;;;11.40;99.90;;;;;;4973927;28;92972;-74
2023/03/21 05:55:33;;;;;;;30.08;18.48;;;11.50;99.90;;;;;;4973858;28;92531;-74
2023/03/21 05:58:00;;;;;;;28.75;17.20;;;11.40;99.90;;;;;;4972374;28;96726;-74
2023/03/21 06:00:29;;;;;;;27.55;17.90;;;11.40;99.90;;;;;;4990132;28;97715;-74
2023/03/21 06:03:12;;;;;;;30.13;18.52;;;11.50;99.90;;;;;;4973815;28;92582;-74
2023/03/21 06:05:52;;;;;;;29.27;17.83;;;11.40;99.90;;;;;;4959301;28;92676;-74
2023/03/21 06:08:23;;;;;;;25.85;18.05;;;11.40;99.90;;;;;;4973579;28;95567;-74
2023/03/21 06:10:50;;;;;;;32.22;19.13;;;11.40;99.90;;;;;;4940904;28;95292;-74
2023/03/21 06:13:17;;;;;;;33.15;20.00;;;11.40;99.90;;;;;;4973011;28;92548;-74
2023/03/21 06:15:44;;;;;;;27.17;18.65;;;11.40;99.90;;;;;;4975139;28;91699;-74
2023/03/21 06:18:16;;;;;;;32.83;19.45;;;11.50;99.90;;;;;;4989906;28;95358;-74
2023/03/21 06:21:06;;;;;;;31.27;19.77;;;11.40;99.90;;;;;;4966238;28;92982;-74
2023/03/21 06:23:33;;;;;;;30.35;20.23;;;11.40;99.90;;;;;;4972354;28;94982;-74
2023/03/21 06:26:00;;;;;;;35.72;21.23;;;11.50;99.90;;;;;;4973893;28;92497;-74
2023/03/21 06:28:27;;;;;;;33.75;20.80;;;11.50;99.90;;;;;;4973288;28;95561;-74
2023/03/21 06:30:54;;;;;;;29.13;20.13;;;11.40;99.90;;;;;;4956889;28;95346;-74
2023/03/21 06:33:24;;;;;;;34.72;22.17;;;11.50;99.90;;;;;;4957387;28;92494;-74
2023/03/21 06:35:53;;;;;;;36.55;20.80;;;11.50;99.90;;;;;;4973016;28;92537;-74
2023/03/21 06:38:21;;;;;;;37.90;23.05;;;11.50;99.90;;;;;;4989472;28;95535;-74
2023/03/21 06:40:48;;;;;;;32.75;21.05;;;11.50;99.90;;;;;;4973329;28;95211;-74
2023/03/21 06:43:16;;;;;;;35.13;20.92;;;11.50;99.90;;;;;;4973572;28;92571;-74
2023/03/21 06:45:43;;;;;;;36.53;20.83;;;11.50;99.90;;;;;;4957021;28;92450;-74
2023/03/21 06:48:11;;;;;;;30.77;19.70;;;11.50;99.90;;;;;;4971800;28;98441;-74
2023/03/21 06:50:49;;;;;;;32.35;19.38;;;11.50;99.90;;;;;;4989203;28;97716;-74
2023/03/21 06:53:19;;;;;;;34.42;20.08;;;11.50;99.90;;;;;;4973128;28;92473;-74
2023/03/21 06:56:13;;;;;;;32.53;20.00;;;11.60;99.90;;;;;;4973074;28;92543;-74
2023/03/21 06:58:41;;;;;;;33.55;19.77;;;11.50;99.90;;;;;;4974903;28;95633;-74
2023/03/21 07:01:16;;;;;;;29.45;19.23;;;11.60;99.90;;;;;;4975982;28;93904;-74
2023/03/21 07:03:56;;;;;;;30.48;18.73;;;11.50;99.90;;;;;;4992538;28;92482;-74
2023/03/21 07:06:27;;;;;;;29.70;18.95;;;11.60;99.90;;;;;;4976974;28;92224;-74
2023/03/21 07:08:55;;;;;;;26.80;18.38;;;11.60;99.90;;;;;;4976109;28;95729;-74
2023/03/21 07:11:23;;;;;;;26.20;17.10;;;11.60;99.90;;;;;;4960088;28;95361;-73
2023/03/21 07:13:51;;;;;;;27.75;18.25;;;11.70;99.90;;;;;;4974514;28;95567;-74
2023/03/21 07:16:20;;;;;;;26.95;18.52;;;11.70;99.90;;;;;;4976144;28;92500;-74
2023/03/21 07:18:47;;;;;;;24.30;16.15;;;11.80;99.90;;;;;;4976084;28;93097;-74
2023/03/21 07:21:14;;;;;;;26.70;17.10;;;11.80;99.90;;;;;;4975975;28;94615;-74
2023/03/21 07:23:41;;;;;;;22.63;15.82;;;11.80;99.90;;;;;;4992593;28;92605;-74
2023/03/21 07:26:09;;;;;;;25.27;15.98;;;11.80;99.90;;;;;;4976135;28;92580;-74
2023/03/21 07:28:36;;;;;;;21.67;15.00;;;11.80;99.90;;;;;;4975935;28;95873;-74
2023/03/21 07:31:05;;;;;;;20.50;14.32;;;11.80;99.90;;;;;;4959721;28;95389;-74
2023/03/21 07:33:33;;;;;;;22.10;15.35;;;11.90;99.90;;;;;;4975852;28;92582;-74
2023/03/21 07:36:01;;;;;;;19.15;13.73;;;11.90;99.90;;;;;;4992430;28;92578;-74
2023/03/21 07:38:29;;;;;;;18.80;13.38;;;11.90;99.90;;;;;;4958431;28;97914;-74
2023/03/21 07:40:59;;;;;;;16.30;12.77;;;12.00;99.90;;;;;;4959476;28;96596;-74
2023/03/21 07:43:29;;;;;;;15.60;12.02;;;12.00;99.90;;;;;;4959940;28;92932;-74
2023/03/21 07:45:58;;;;;;;14.85;11.20;;;12.00;99.90;;;;;;4975564;28;92641;-74
2023/03/21 07:48:26;;;;;;;13.43;11.15;;;12.00;99.90;;;;;;4975464;28;95805;-74
2023/03/21 07:50:53;;;;;;;14.10;10.65;;;12.10;99.90;;;;;;4976741;28;93072;-74
2023/03/21 07:53:20;;;;;;;11.55;9.75;;;12.10;99.90;;;;;;4992005;28;92500;-74
2023/03/21 07:55:52;;;;;;;12.98;9.73;;;12.20;99.90;;;;;;4976350;28;91845;-74
2023/03/21 07:58:19;;;;;;;11.40;9.98;;;12.30;99.90;;;;;;4975880;28;95987;-74
2023/03/21 08:00:47;;;;;;;11.23;9.73;;;12.30;99.90;;;;;;4976207;28;102304;-74
2023/03/21 08:03:14;;;;;;;11.70;9.68;;;12.40;99.90;;;;;;4976237;28;94821;-74
2023/03/21 08:05:43;;;;;;;13.23;9.68;;;12.40;99.90;;;;;;4977704;28;92702;-74
2023/03/21 08:08:10;;;;;;;10.10;8.93;;;12.50;99.90;;;;;;4959630;28;93333;-74
2023/03/21 08:10:37;;;;;;;10.63;9.52;;;12.50;99.90;;;;;;4975915;28;92924;-74
2023/03/21 08:13:04;;;;;;;12.50;9.82;;;12.50;99.90;;;;;;4975527;28;93958;-74
2023/03/21 08:15:31;;;;;;;11.52;9.27;;;12.50;99.90;;;;;;4975968;28;92431;-74
2023/03/21 08:17:59;;;;;;;11.40;9.80;;;12.50;99.90;;;;;;4975581;28;95824;-74
2023/03/21 08:20:26;;;;;;;12.40;11.07;;;12.60;99.90;;;;;;4977614;28;92978;-74
2023/03/21 08:22:54;;;;;;;12.50;10.43;;;12.50;99.90;;;;;;4991152;28;92629;-74
2023/03/21 08:25:21;;;;;;;12.13;9.98;;;12.60;99.90;;;;;;4975033;28;92605;-74
2023/03/21 08:27:50;;;;;;;12.05;10.43;;;12.60;99.90;;;;;;4974937;28;95581;-74
2023/03/21 08:30:20;;;;;;;13.18;10.98;;;12.60;99.90;;;;;;4975011;28;95569;-74
2023/03/21 08:32:47;;;;;;;12.48;9.95;;;12.70;99.90;;;;;;4976174;28;92365;-74
2023/03/21 08:35:16;;;;;;;12.13;10.48;;;12.70;99.90;;;;;;4975611;28;92444;-74
2023/03/21 08:37:43;;;;;;;12.23;10.27;;;12.70;99.90;;;;;;4958774;28;93361;-74
2023/03/21 08:40:14;;;;;;;13.27;11.02;;;12.80;99.90;;;;;;4975854;28;92594;-74
2023/03/21 08:42:42;;;;;;;12.55;11.15;;;12.80;99.90;;;;;;4976407;28;92782;-74
2023/03/21 08:45:11;;;;;;;11.85;10.27;;;12.90;99.90;;;;;;4976322;28;92265;-74
2023/03/21 08:47:38;;;;;;;11.88;10.48;;;12.90;99.90;;;;;;4991168;28;95750;-74
2023/03/21 08:50:07;;;;;;;10.05;9.05;;;12.90;99.90;;;;;;4975398;28;103543;-74
2023/03/21 08:52:34;;;;;;;11.13;10.00;;;12.90;99.90;;;;;;4975230;28;94915;-74
2023/03/21 08:55:02;;;;;;;11.23;9.70;;;12.90;99.90;;;;;;4975958;28;92452;-74
2023/03/21 08:57:29;;;;;;;10.18;9.13;;;12.90;99.90;;;;;;4976441;28;93137;-74
2023/03/21 08:59:56;;;;;;;12.68;10.02;;;12.90;99.90;;;;;;4974862;28;95596;-74
2023/03/21 09:02:23;;;;;;;11.02;9.85;;;13.00;99.90;;;;;;4976037;28;92463;-74
2023/03/21 09:04:53;;;;;;;12.52;10.52;;;13.00;99.90;;;;;;4976643;28;92461;-74
2023/03/21 09:07:21;;;;;;;12.65;9.98;;;13.00;99.90;;;;;;4971699;28;99347;-74
2023/03/21 09:09:51;;;;;;;11.70;10.43;;;13.00;99.90;;;;;;4972846;28;99144;-74
2023/03/21 09:12:38;;;;;;;11.77;10.55;;;13.00;99.90;;;;;;4973284;28;98512;-74
2023/03/21 09:15:06;;;;;;;11.77;9.95;;;13.00;99.90;;;;;;4972188;28;98511;-74
2023/03/21 09:17:33;;;;;;;10.77;9.52;;;13.10;99.90;;;;;;4972644;28;100083;-74
2023/03/21 09:20:09;;;;;;;12.00;9.80;;;13.10;99.90;;;;;;4972297;28;99790;-74
2023/03/21 09:22:40;;;;;;;13.73;10.65;;;13.10;99.90;;;;;;4972550;28;98544;-74
2023/03/21 09:25:10;;;;;;;12.15;10.38;;;13.10;99.90;;;;;;4972785;28;98515;-74
2023/03/21 09:27:37;;;;;;;13.82;10.73;;;13.00;99.90;;;;;;4971898;28;109964;-74
2023/03/21 09:30:06;;;;;;;12.23;10.27;;;13.00;99.90;;;;;;4972101;28;99075;-74
2023/03/21 09:32:34;;;;;;;13.25;9.98;;;13.00;99.90;;;;;;4972649;28;98526;-74
2023/03/21 09:35:01;;;;;;;11.00;9.82;;;13.00;99.90;;;;;;4971520;28;97933;-74
2023/03/21 09:37:28;;;;;;;14.00;9.60;;;13.00;99.90;;;;;;4971490;28;99251;-74
2023/03/21 09:39:57;;;;;;;10.75;9.55;;;13.10;99.90;;;;;;4972637;28;98825;-74
2023/03/21 09:42:51;;;;;;;15.75;11.60;;;13.10;99.90;;;;;;4971000;28;99354;-74
2023/03/21 09:45:23;;;;;;;16.65;11.95;;;13.20;99.90;;;;;;4987610;28;99460;-74
2023/03/21 09:47:53;;;;;;;16.48;11.50;;;13.20;99.90;;;;;;4972181;28;99324;-74
2023/03/21 09:50:26;;;;;;;18.67;12.60;;;13.20;99.90;;;;;;4938245;28;102897;-74
2023/03/21 09:52:58;;;;;;;21.55;13.45;;;13.30;99.90;;;;;;4972629;28;98556;-74
2023/03/21 09:55:33;;;;;;;15.25;11.50;;;13.30;99.90;;;;;;4972820;28;99054;-74
2023/03/21 09:58:31;;;;;;;18.08;12.77;;;13.30;99.90;;;;;;4970308;28;100572;-74
2023/03/21 10:01:40;;;;;;;16.20;12.10;;;13.30;99.90;;;;;;4972084;28;99174;-74
2023/03/21 10:04:11;;;;;;;15.73;13.10;;;13.20;99.90;;;;;;4970724;28;98573;-74
2023/03/21 10:06:41;;;;;;;16.67;13.00;;;13.10;99.90;;;;;;4970718;28;99001;-74
2023/03/21 10:09:23;;;;;;;19.17;13.95;;;13.10;99.90;;;;;;4970803;28;100064;-74
2023/03/21 10:12:00;;;;;;;15.63;11.82;;;13.20;99.90;;;;;;4971923;28;101316;-74
2023/03/21 10:14:41;;;;;;;14.85;11.88;;;13.20;99.90;;;;;;4969662;28;101395;-74
2023/03/21 10:17:39;;;;;;;17.65;13.45;;;13.30;99.90;;;;;;4972038;28;98496;-74
2023/03/21 10:20:13;;;;;;;15.00;10.80;;;13.30;99.90;;;;;;4971530;28;99408;-74
2023/03/21 10:22:42;;;;;;;18.15;12.82;;;13.20;99.90;;;;;;4970242;28;101772;-74
2023/03/21 10:25:14;;;;;;;18.17;13.00;;;13.20;99.90;;;;;;4986975;28;99103;-74
2023/03/21 10:27:42;;;;;;;19.83;13.77;;;13.20;99.90;;;;;;4972419;28;97769;-74
2023/03/21 10:30:19;;;;;;;17.00;12.80;;;13.20;99.90;;;;;;4953789;28;99343;-74
2023/03/21 10:32:46;;;;;;;19.42;13.25;;;13.30;99.90;;;;;;4974024;28;99207;-74
2023/03/21 10:35:14;;;;;;;16.13;12.50;;;13.30;99.90;;;;;;4973647;28;99454;-74
2023/03/21 10:37:41;;;;;;;20.25;13.93;;;13.30;99.90;;;;;;4957759;28;99026;-74
2023/03/21 10:40:15;;;;;;;16.25;12.55;;;13.30;99.90;;;;;;4974709;28;99250;-74
2023/03/21 10:42:43;;;;;;;18.00;12.70;;;13.30;99.90;;;;;;4973362;28;101573;-74
2023/03/21 10:45:18;;;;;;;15.88;12.48;;;13.20;99.90;;;;;;4974969;28;98436;-74
2023/03/21 10:47:50;;;;;;;14.35;10.10;;;13.30;99.90;;;;;;4975362;28;98858;-74
2023/03/21 10:50:23;;;;;;;20.25;11.60;;;13.20;99.90;;;;;;4973445;28;99333;-74
2023/03/21 10:52:59;;;;;;;15.90;11.32;;;13.30;99.90;;;;;;4975221;28;98864;-74
2023/03/21 10:55:30;;;;;;;16.10;12.70;;;13.40;99.90;;;;;;4973555;28;98648;-74
2023/03/21 10:58:09;;;;;;;14.25;11.65;;;13.50;99.90;;;;;;4973838;28;98613;-74
2023/03/21 11:00:40;;;;;;;13.60;11.40;;;13.60;99.90;;;;;;4972766;28;102633;-74
2023/03/21 11:03:30;;;;;;;19.13;11.57;;;13.60;99.90;;;;;;4972975;28;102426;-74
2023/03/21 11:06:21;;;;;;;15.38;11.88;;;13.60;99.90;;;;;;4975068;28;98962;-74
2023/03/21 11:08:53;;;;;;;16.27;11.55;;;13.60;99.90;;;;;;4974929;28;98551;-74
2023/03/21 11:11:28;;;;;;;15.57;11.25;;;13.60;99.90;;;;;;4972883;28;102001;-74
2023/03/21 11:13:58;;;;;;;14.02;10.65;;;13.70;99.90;;;;;;4972721;28;98955;-74
2023/03/21 11:16:39;;;;;;;17.05;11.50;;;13.70;99.90;;;;;;4974650;28;98470;-74
2023/03/21 11:19:34;;;;;;;14.25;10.63;;;13.70;99.90;;;;;;4973726;28;98064;-74
2023/03/21 11:22:06;;;;;;;14.32;10.88;;;13.80;99.90;;;;;;4974464;28;99407;-74
2023/03/21 11:24:34;;;;;;;13.32;10.35;;;13.80;99.90;;;;;;4974016;28;99119;-74
2023/03/21 11:27:06;;;;;;;16.63;11.40;;;13.80;99.90;;;;;;4973002;28;99387;-74
2023/03/21 11:29:37;;;;;;;14.68;11.88;;;13.90;99.90;;;;;;4974604;28;98462;-74
2023/03/21 11:32:12;;;;;;;13.00;10.25;;;14.00;99.90;;;;;;4974321;28;99263;-74
2023/03/21 11:34:52;;;;;;;19.05;11.27;;;14.20;99.90;;;;;;4972352;28;100332;-74
2023/03/21 11:37:25;;;;;;;16.08;11.20;;;14.40;99.90;;;;;;4972888;28;98517;-74
2023/03/21 11:40:12;;;;;;;14.23;10.75;;;14.50;99.90;;;;;;4974728;28;99063;-74
2023/03/21 11:42:44;;;;;;;13.55;9.95;;;14.70;99.90;;;;;;4972935;28;100134;-74
2023/03/21 11:45:17;;;;;;;14.13;10.07;;;14.80;99.90;;;;;;4974198;28;99253;-74
2023/03/21 11:47:45;;;;;;;14.93;10.65;;;14.90;99.90;;;;;;4989668;28;98692;-74
2023/03/21 11:50:12;;;;;;;15.48;11.02;;;14.90;99.90;;;;;;4974140;28;98603;-74
2023/03/21 11:52:49;;;;;;;14.27;10.68;;;15.10;99.90;;;;;;4971854;28;101239;-74
2023/03/21 11:55:37;;;;;;;14.70;10.75;;;15.40;99.90;;;;;;4974031;28;99925;-74
2023/03/21 11:58:15;;;;;;;12.52;8.70;;;15.70;99.90;;;;;;4971759;28;98621;-74
2023/03/21 12:00:59;;;;;;;15.02;10.35;;;15.70;99.90;;;;;;4974728;28;98528;-74
2023/03/21 12:03:35;;;;;;;13.07;9.27;;;15.80;99.90;;;;;;4955954;28;101789;-74
2023/03/21 12:06:37;;;;;;;13.07;8.85;;;15.80;99.90;;;;;;4972650;28;101745;-74
2023/03/21 12:09:43;;;;;;;10.23;8.23;;;16.10;99.90;;;;;;4989756;28;98601;-74
2023/03/21 12:12:16;;;;;;;14.13;8.38;;;16.10;99.90;;;;;;4974637;28;97811;-74
2023/03/21 12:15:12;;;;;;;10.32;7.45;;;16.00;99.90;;;;;;4955969;28;102158;-74
2023/03/21 12:17:42;;;;;;;10.00;8.38;;;16.00;99.90;;;;;;4972481;28;101752;-74
2023/03/21 12:20:15;;;;;;;10.63;7.18;;;16.00;99.90;;;;;;4972601;28;99663;-74
2023/03/21 12:23:00;;;;;;;12.55;8.15;;;16.00;99.90;;;;;;4972677;28;98597;-74
2023/03/21 12:25:32;;;;;;;11.52;7.70;;;16.20;99.90;;;;;;4972397;28;102021;-74
2023/03/21 12:28:27;;;;;;;11.38;7.05;;;16.10;99.90;;;;;;4972360;28;101560;-74
2023/03/21 12:31:34;;;;;;;11.30;7.20;;;16.10;99.90;;;;;;4973911;28;98924;-74
2023/03/21 12:34:26;;;;;;;8.23;6.57;;;16.00;99.90;;;;;;4973914;28;98577;-74
2023/03/21 12:36:56;;;;;;;9.25;6.80;;;16.00;99.90;;;;;;4973837;28;99471;-74
2023/03/21 12:39:34;;;;;;;10.27;6.55;;;15.90;99.90;;;;;;4973799;28;99057;-74
2023/03/21 12:42:06;;;;;;;7.38;6.10;;;16.00;99.90;;;;;;4974127;28;98456;-74
2023/03/21 12:44:43;;;;;;;8.48;6.68;;;16.00;99.90;;;;;;4972429;28;98713;-74
2023/03/21 12:47:20;;;;;;;12.65;6.68;;;16.00;99.90;;;;;;4971643;28;102465;-74
2023/03/21 12:50:05;;;;;;;10.10;6.32;;;15.90;99.90;;;;;;4971677;28;102531;-74
2023/03/21 12:52:38;;;;;;;9.85;6.75;;;15.90;99.90;;;;;;4973775;28;98475;-74
2023/03/21 12:55:15;;;;;;;8.93;7.03;;;15.90;99.90;;;;;;4971369;28;98615;-74
2023/03/21 12:57:54;;;;;;;9.50;7.28;;;15.80;99.90;;;;;;4973319;28;99448;-74
2023/03/21 13:00:55;;;;;;;11.30;7.20;;;15.70;99.90;;;;;;4972152;28;100131;-74
2023/03/21 13:03:25;;;;;;;8.73;6.55;;;15.60;99.90;;;;;;4973883;28;98531;-74